This is the latest recevied weather packets stored in our database for station/object WP4NYS-13. If no packets are shown the sender has not sent any weather packets the latest 1 day(s).
| Time | Temp. | Humidity | Pressure | Rain* | Wind** | Luminosity | Snow |
|---|---|---|---|---|---|---|---|
| 1778000441 | 27.78° C | 47% | 1017.4 hPa | 0 mm | 0.45 m/s, 135° | - | - |
| 1778000136 | 27.78° C | 46% | 1017.7 hPa | 0 mm | 0.45 m/s, 254° | - | - |
| 1777999832 | 28.33° C | 47% | 1017.7 hPa | 0 mm | 0.89 m/s, 162° | - | - |
| 1777999529 | 28.89° C | 47% | 1017.3 hPa | 0 mm | 0 m/s | - | - |
| 1777999227 | 30° C | 44% | 1017.5 hPa | 0 mm | 0.89 m/s, 27° | - | - |
| 1777998926 | 30° C | 44% | 1017.7 hPa | 0 mm | 0 m/s | - | - |
| 1777998622 | 29.44° C | 46% | 1017.5 hPa | 0 mm | 0.45 m/s, 178° | - | - |
| 1777998325 | 29.44° C | 47% | 1017.5 hPa | 0 mm | 0.89 m/s, 129° | - | - |
| 1777998018 | 29.44° C | 46% | 1017.8 hPa | 0 mm | 0.45 m/s, 125° | - | - |
| 1777997714 | 28.89° C | 46% | 1017.7 hPa | 0 mm | 0.45 m/s, 164° | - | - |
| 1777997411 | 28.33° C | 49% | 1017.6 hPa | 0 mm | 0 m/s | - | - |
| 1777997109 | 28.33° C | 49% | 1017.9 hPa | 0 mm | 0 m/s | - | - |
| 1777996806 | 27.78° C | 50% | 1017.8 hPa | 0 mm | 0.45 m/s, 46° | - | - |
| 1777996502 | 28.33° C | 49% | 1017.9 hPa | 0 mm | 0.45 m/s, 142° | - | - |
| 1777996199 | 27.78° C | 50% | 1018 hPa | 0 mm | 0.45 m/s, 140° | - | - |
| 1777995896 | 27.22° C | 50% | 1018 hPa | 0 mm | 0.89 m/s, 264° | - | - |
| 1777995591 | 27.78° C | 51% | 1017.9 hPa | 0 mm | 0.45 m/s, 223° | - | - |
| 1777995289 | 28.33° C | 49% | 1018 hPa | 0 mm | 0.89 m/s, 277° | - | - |
| 1777994986 | 27.78° C | 51% | 1017.8 hPa | 0 mm | 0.45 m/s, 86° | - | - |
| 1777994683 | 27.78° C | 52% | 1018.3 hPa | 0 mm | 0.45 m/s, 78° | - | - |
| 1777994383 | 27.78° C | 52% | 1017.8 hPa | 0 mm | 0 m/s | - | - |
| 1777994079 | 28.33° C | 51% | 1017.7 hPa | 0 mm | 0.89 m/s, 253° | - | - |
| 1777993777 | 27.78° C | 55% | 1017.9 hPa | 0 mm | 0.45 m/s, 61° | - | - |
| 1777993474 | 26.67° C | 56% | 1018 hPa | 0 mm | 0.89 m/s, 245° | - | - |
| 1777993173 | 26.67° C | 57% | 1017.9 hPa | 0 mm | 0 m/s | - | - |
* Rain latest hour (hover to see other rain measurements)
** Current wind speed in m/s (hover to see current wind gust speed)